createdAt,value
2019-02-17T00:00:02.898Z,88490.91
2019-02-17T00:02:29.705Z,88494.84
2019-02-17T00:04:56.443Z,88485.29
2019-02-17T00:07:23.159Z,88489.21
2019-02-17T00:09:49.938Z,88485.87
2019-02-17T00:12:16.690Z,88487.44
2019-02-17T00:14:43.390Z,88476.08
2019-02-17T00:17:10.205Z,88483.05
2019-02-17T00:19:36.944Z,88473.77
2019-02-17T00:22:03.784Z,88478.72
2019-02-17T00:24:30.582Z,88479.23
2019-02-17T00:26:57.327Z,88474.86
2019-02-17T00:29:24.039Z,88471.59
2019-02-17T00:31:50.827Z,88478.03
2019-02-17T00:34:17.580Z,88478.27
2019-02-17T00:36:44.289Z,88471.56
2019-02-17T00:39:11.104Z,88469.54
2019-02-17T00:41:37.809Z,88469.34
2019-02-17T00:44:04.571Z,88471.66
2019-02-17T00:46:31.298Z,88470.63
2019-02-17T00:48:58.055Z,88467.51
2019-02-17T00:51:24.832Z,88470.63
2019-02-17T00:53:51.579Z,88467.78
2019-02-17T00:56:18.299Z,88468.86
2019-02-17T00:58:45.116Z,88466.05
2019-02-17T01:01:11.872Z,88466.34
2019-02-17T01:03:38.633Z,88463.77
2019-02-17T01:06:05.404Z,88463.28
2019-02-17T01:08:32.119Z,88458.39
2019-02-17T01:10:58.875Z,88459.39
2019-02-17T01:13:25.657Z,88458.62
2019-02-17T01:15:52.377Z,88456.84
2019-02-17T01:18:19.162Z,88451.19
2019-02-17T01:20:45.905Z,88452.77
2019-02-17T01:23:16.272Z,88448.41
2019-02-17T01:25:43.054Z,88449.20
2019-02-17T01:28:09.769Z,88450.72
2019-02-17T01:30:36.500Z,88446.07
2019-02-17T01:33:03.286Z,88447.92
2019-02-17T01:35:30.014Z,88443.56
2019-02-17T01:37:58.265Z,88443.01
2019-02-17T01:40:25.257Z,88444.59
2019-02-17T01:42:51.963Z,88441.52
2019-02-17T01:45:18.724Z,88446.97
2019-02-17T01:47:45.513Z,88438.99
2019-02-17T01:50:12.211Z,88434.89
2019-02-17T01:52:38.976Z,88433.09
2019-02-17T01:55:07.027Z,88430.02
2019-02-17T01:57:33.782Z,88426.15
2019-02-17T02:00:00.533Z,88428.23
2019-02-17T02:02:27.322Z,88428.23
2019-02-17T02:04:54.038Z,88420.23
2019-02-17T02:07:20.770Z,88423.59
2019-02-17T02:09:47.552Z,88420.75
2019-02-17T02:12:14.283Z,88416.88
2019-02-17T02:14:40.993Z,88419.76
2019-02-17T02:17:07.762Z,88414.09
2019-02-17T02:19:34.495Z,88417.19
2019-02-17T02:22:01.207Z,88414.08
2019-02-17T02:24:28.072Z,88414.88
2019-02-17T02:26:54.811Z,88414.63
2019-02-17T02:29:21.511Z,88416.48
2019-02-17T02:31:48.308Z,88413.92
2019-02-17T02:34:15.051Z,88414.20
2019-02-17T02:36:41.842Z,88414.47
2019-02-17T02:39:08.544Z,88417.09
2019-02-17T02:41:35.422Z,88410.64
2019-02-17T02:44:02.165Z,88407.53
2019-02-17T02:46:28.872Z,88409.91
2019-02-17T02:48:55.679Z,88413.26
2019-02-17T02:51:22.387Z,88413.53
2019-02-17T02:53:49.133Z,88411.22
2019-02-17T02:56:15.934Z,88407.89
2019-02-17T02:58:42.667Z,88403.74
2019-02-17T03:01:09.413Z,88403.74
2019-02-17T03:03:36.194Z,88408.13
2019-02-17T03:06:02.959Z,88398.88
2019-02-17T03:08:29.690Z,88407.61
2019-02-17T03:10:56.465Z,88404.53
2019-02-17T03:13:23.224Z,88402.98
2019-02-17T03:15:49.949Z,88407.92
2019-02-17T03:18:16.733Z,88402.27
2019-02-17T03:20:43.494Z,88406.14
2019-02-17T03:23:10.234Z,88403.58
2019-02-17T03:25:37.092Z,88406.45
2019-02-17T03:28:03.834Z,88403.38
2019-02-17T03:30:30.587Z,88400.81
2019-02-17T03:32:57.376Z,88402.63
2019-02-17T03:35:24.078Z,88393.11
2019-02-17T03:37:50.876Z,88401.11
2019-02-17T03:40:17.635Z,88399.34
2019-02-17T03:42:44.384Z,88398.84
2019-02-17T03:45:11.159Z,88398.06
2019-02-17T03:47:37.876Z,88398.84
2019-02-17T03:50:05.943Z,88408.14
2019-02-17T03:52:32.694Z,88400.41
2019-02-17T03:54:59.442Z,88395.27
2019-02-17T03:57:26.227Z,88402.73
2019-02-17T03:59:52.965Z,88397.57
2019-02-17T04:02:19.700Z,88396.56
2019-02-17T04:04:46.491Z,88394.26
2019-02-17T04:07:13.239Z,88393.99
2019-02-17T04:09:39.955Z,88390.63
2019-02-17T04:12:06.750Z,88393.20
2019-02-17T04:14:33.480Z,88397.33
2019-02-17T04:17:01.375Z,88394.48
2019-02-17T04:19:28.177Z,88387.25
2019-02-17T04:21:54.880Z,88388.26
2019-02-17T04:24:21.595Z,88390.05
2019-02-17T04:26:51.484Z,88389.30
2019-02-17T04:29:18.220Z,88391.61
2019-02-17T04:31:45.052Z,88389.55
2019-02-17T04:34:11.750Z,88391.39
2019-02-17T04:36:38.484Z,88389.33
2019-02-17T04:39:05.241Z,88395.79
2019-02-17T04:41:31.980Z,88383.19
2019-02-17T04:43:58.754Z,88382.95
2019-02-17T04:46:25.457Z,88387.84
2019-02-17T04:48:52.201Z,88381.67
2019-02-17T04:51:19.200Z,88389.41
2019-02-17T04:53:45.873Z,88386.05
2019-02-17T04:56:12.983Z,88380.67
2019-02-17T04:58:39.699Z,88381.46
2019-02-17T05:01:06.430Z,88381.47
2019-02-17T05:03:33.272Z,88385.62
2019-02-17T05:06:00.037Z,88386.41
2019-02-17T05:08:26.736Z,88389.22
2019-02-17T05:10:53.510Z,88386.69
2019-02-17T05:13:20.249Z,88385.41
2019-02-17T05:15:47.077Z,88387.20
2019-02-17T05:18:13.814Z,88384.91
2019-02-17T05:20:40.521Z,88384.36
2019-02-17T05:23:07.339Z,88386.94
2019-02-17T05:25:34.050Z,88381.81
2019-02-17T05:28:00.824Z,88380.26
2019-02-17T05:30:27.641Z,88381.03
2019-02-17T05:32:54.367Z,88379.48
2019-02-17T05:35:21.100Z,88377.13
2019-02-17T05:37:47.942Z,88380.48
2019-02-17T05:40:14.689Z,88376.11
2019-02-17T05:42:41.427Z,88379.47
2019-02-17T05:45:08.268Z,88380.48
2019-02-17T05:47:34.953Z,88382.82
2019-02-17T05:50:01.665Z,88377.67
2019-02-17T05:52:28.490Z,88377.13
2019-02-17T05:54:55.224Z,88378.69
2019-02-17T05:57:21.939Z,88377.41
2019-02-17T05:59:57.394Z,88374.84
2019-02-17T06:02:30.055Z,88377.69
2019-02-17T06:04:56.986Z,88379.23
2019-02-17T06:07:23.747Z,88383.10
2019-02-17T06:09:50.481Z,88388.48
2019-02-17T06:12:18.677Z,88388.99
2019-02-17T06:14:45.493Z,88389.77
2019-02-17T06:17:12.245Z,88391.84
2019-02-17T06:19:39.052Z,88389.50
2019-02-17T06:22:05.770Z,88395.70
2019-02-17T06:24:32.482Z,88395.44
2019-02-17T06:26:59.257Z,88393.17
2019-02-17T06:29:26.033Z,88397.78
2019-02-17T06:31:52.784Z,88401.64
2019-02-17T06:34:19.554Z,88407.05
2019-02-17T06:36:46.339Z,88405.27
2019-02-17T06:39:13.189Z,88405.77
2019-02-17T06:41:40.023Z,88415.56
2019-02-17T06:44:06.756Z,88416.58
2019-02-17T06:46:33.590Z,88416.60
2019-02-17T06:49:00.326Z,88414.03
2019-02-17T06:51:27.062Z,88417.63
2019-02-17T06:53:53.834Z,88417.35
2019-02-17T06:56:20.598Z,88419.17
2019-02-17T06:58:47.308Z,88421.75
2019-02-17T07:01:24.087Z,88418.91
2019-02-17T07:03:43.204Z,88416.84
2019-02-17T07:06:10.006Z,88423.04
2019-02-17T07:08:36.803Z,88411.97
2019-02-17T07:11:03.565Z,88413.49
2019-02-17T07:13:30.335Z,88412.44
2019-02-17T07:15:57.070Z,88404.45
2019-02-17T07:18:23.820Z,88405.49
2019-02-17T07:20:50.608Z,88407.24
2019-02-17T07:23:17.314Z,88405.95
2019-02-17T07:25:45.641Z,88404.66
2019-02-17T07:28:12.406Z,88408.29
2019-02-17T07:30:39.888Z,88401.08
2019-02-17T07:33:06.749Z,88407.23
2019-02-17T07:35:33.466Z,88405.67
2019-02-17T07:38:00.229Z,88401.29
2019-02-17T07:40:27.002Z,88398.70
2019-02-17T07:42:53.785Z,88398.92
2019-02-17T07:45:22.133Z,88399.94
2019-02-17T07:47:52.583Z,88399.64
2019-02-17T07:50:19.286Z,88399.83
2019-02-17T07:52:46.027Z,88389.71
2019-02-17T07:55:12.787Z,88396.61
2019-02-17T07:57:39.510Z,88391.34
2019-02-17T08:00:11.180Z,88389.96
2019-02-17T08:02:37.912Z,88389.11
2019-02-17T08:05:05.752Z,88387.78
2019-02-17T08:07:32.504Z,88388.14
2019-02-17T08:10:00.740Z,88385.74
2019-02-17T08:12:27.832Z,88389.50
2019-02-17T08:14:54.569Z,88381.16
2019-02-17T08:17:21.308Z,88383.66
2019-02-17T08:19:48.071Z,88378.90
2019-02-17T08:22:14.784Z,88373.88
2019-02-17T08:24:41.534Z,88372.71
2019-02-17T08:27:08.351Z,88372.06
2019-02-17T08:29:35.086Z,88370.91
2019-02-17T08:32:01.854Z,88370.36
2019-02-17T08:34:28.753Z,88370.28
2019-02-17T08:36:55.496Z,88366.58
2019-02-17T08:39:22.211Z,88365.42
2019-02-17T08:41:48.973Z,88361.95
2019-02-17T08:44:15.691Z,88355.39
2019-02-17T08:46:42.486Z,88356.20
2019-02-17T08:49:09.203Z,88349.09
2019-02-17T08:51:35.910Z,88357.69
2019-02-17T08:54:02.707Z,88344.90
2019-02-17T08:56:30.510Z,88348.88
2019-02-17T08:58:57.253Z,88349.47
2019-02-17T09:01:24.012Z,88344.18
2019-02-17T09:03:50.770Z,88344.77
2019-02-17T09:06:17.619Z,88339.69
2019-02-17T09:08:44.338Z,88339.75
2019-02-17T09:11:11.073Z,88332.00
2019-02-17T09:13:37.868Z,88338.19
2019-02-17T09:16:04.612Z,88335.17
2019-02-17T09:18:31.370Z,88331.66
2019-02-17T09:20:58.148Z,88331.14
2019-02-17T09:23:24.901Z,88330.66
2019-02-17T09:25:51.791Z,88327.11
2019-02-17T09:28:18.520Z,88326.14
2019-02-17T09:30:45.284Z,88323.70
2019-02-17T09:33:12.065Z,88318.05
2019-02-17T09:35:38.881Z,88320.89
2019-02-17T09:38:05.618Z,88311.95
2019-02-17T09:40:32.342Z,88314.91
2019-02-17T09:42:59.144Z,88314.77
2019-02-17T09:45:25.856Z,88310.97
2019-02-17T09:47:52.616Z,88311.02
2019-02-17T09:50:19.415Z,88313.61
2019-02-17T09:52:46.143Z,88312.84
2019-02-17T09:55:12.890Z,88304.86
2019-02-17T09:57:39.661Z,88308.28
2019-02-17T10:00:12.531Z,88306.25
2019-02-17T10:02:39.275Z,88304.06
2019-02-17T10:05:08.674Z,88308.09
2019-02-17T10:07:35.429Z,88305.45
2019-02-17T10:10:03.174Z,88301.77
2019-02-17T10:12:29.962Z,88299.49
2019-02-17T10:14:56.672Z,88296.59
2019-02-17T10:17:23.475Z,88298.03
2019-02-17T10:19:50.172Z,88295.75
2019-02-17T10:22:16.907Z,88293.75
2019-02-17T10:24:43.720Z,88284.36
2019-02-17T10:27:10.452Z,88286.30
2019-02-17T10:29:37.186Z,88290.03
2019-02-17T10:32:03.954Z,88289.96
2019-02-17T10:34:34.457Z,88281.76
2019-02-17T10:37:01.168Z,88281.69
2019-02-17T10:39:27.969Z,88278.63
2019-02-17T10:41:54.676Z,88276.50
2019-02-17T10:44:21.524Z,88272.59
2019-02-17T10:46:48.250Z,88272.13
2019-02-17T10:49:14.983Z,88263.97
2019-02-17T10:51:41.778Z,88258.22
2019-02-17T10:54:08.499Z,88258.36
2019-02-17T10:56:35.221Z,88258.90
2019-02-17T10:59:01.985Z,88244.84
2019-02-17T11:01:28.808Z,88243.80
2019-02-17T11:04:02.211Z,88235.13
2019-02-17T11:06:29.043Z,88232.03
2019-02-17T11:08:55.790Z,88224.25
2019-02-17T11:11:22.488Z,88232.59
2019-02-17T11:13:49.253Z,88225.87
2019-02-17T11:16:16.027Z,88223.09
2019-02-17T11:18:42.780Z,88213.88
2019-02-17T11:21:09.549Z,88218.39
2019-02-17T11:23:36.307Z,88213.20
2019-02-17T11:26:03.086Z,88206.50
2019-02-17T11:28:29.826Z,88199.20
2019-02-17T11:30:56.536Z,88200.02
2019-02-17T11:33:23.316Z,88194.94
2019-02-17T11:35:50.109Z,88193.22
2019-02-17T11:38:16.822Z,88189.69
2019-02-17T11:40:43.589Z,88189.77
2019-02-17T11:43:10.341Z,88186.11
2019-02-17T11:45:37.074Z,88185.08
2019-02-17T11:48:03.859Z,88178.38
2019-02-17T11:50:30.586Z,88183.58
2019-02-17T11:52:57.333Z,88175.64
2019-02-17T11:55:24.118Z,88172.33
2019-02-17T11:57:50.840Z,88161.67
2019-02-17T12:00:20.290Z,88160.73
2019-02-17T12:02:47.068Z,88154.30
2019-02-17T12:05:13.888Z,88154.07
2019-02-17T12:07:40.559Z,88148.73
2019-02-17T12:10:09.737Z,88150.04
2019-02-17T12:12:36.482Z,88148.07
2019-02-17T12:15:05.961Z,88141.64
2019-02-17T12:17:32.693Z,88140.95
2019-02-17T12:19:59.460Z,88130.62
2019-02-17T12:22:26.243Z,88130.62
2019-02-17T12:24:52.991Z,88127.45
2019-02-17T12:27:19.785Z,88124.78
2019-02-17T12:29:46.527Z,88122.80
2019-02-17T12:32:13.309Z,88114.71
2019-02-17T12:34:40.064Z,88115.70
2019-02-17T12:37:06.863Z,88108.30
2019-02-17T12:39:33.670Z,88109.33
2019-02-17T12:42:00.415Z,88106.31
2019-02-17T12:44:27.141Z,88109.78
2019-02-17T12:46:53.940Z,88108.75
2019-02-17T12:49:20.679Z,88103.14
2019-02-17T12:51:47.437Z,88100.55
2019-02-17T12:54:14.230Z,88097.72
2019-02-17T12:56:40.974Z,88100.55
2019-02-17T12:59:07.727Z,88099.58
2019-02-17T13:01:34.515Z,88095.84
2019-02-17T13:04:01.278Z,88091.58
2019-02-17T13:06:28.025Z,88091.20
2019-02-17T13:08:54.832Z,88091.03
2019-02-17T13:11:21.541Z,88089.92
2019-02-17T13:13:48.305Z,88088.41
2019-02-17T13:16:15.088Z,88085.56
2019-02-17T13:18:41.843Z,88078.72
2019-02-17T13:21:08.598Z,88077.56
2019-02-17T13:23:35.352Z,88079.42
2019-02-17T13:26:02.074Z,88080.67
2019-02-17T13:28:28.885Z,88079.52
2019-02-17T13:30:55.618Z,88080.23
2019-02-17T13:33:22.343Z,88076.92
2019-02-17T13:35:49.107Z,88075.24
2019-02-17T13:38:15.906Z,88078.13
2019-02-17T13:40:42.625Z,88075.80
2019-02-17T13:43:09.464Z,88073.63
2019-02-17T13:45:36.165Z,88069.66
2019-02-17T13:48:02.886Z,88068.55
2019-02-17T13:50:29.653Z,88068.85
2019-02-17T13:52:56.409Z,88070.77
2019-02-17T13:55:23.176Z,88066.02
2019-02-17T13:57:52.266Z,88066.91
2019-02-17T14:00:18.770Z,88069.12
2019-02-17T14:02:45.805Z,88067.58
2019-02-17T14:05:12.864Z,88070.88
2019-02-17T14:07:41.470Z,88068.79
2019-02-17T14:10:11.889Z,88067.91
2019-02-17T14:12:38.630Z,88075.95
2019-02-17T14:15:15.404Z,88070.23
2019-02-17T14:17:42.149Z,88068.98
2019-02-17T14:20:09.563Z,88065.91
2019-02-17T14:22:36.381Z,88071.41
2019-02-17T14:25:05.287Z,88069.59
2019-02-17T14:27:32.000Z,88061.70
2019-02-17T14:29:58.786Z,88065.80
2019-02-17T14:32:25.538Z,88066.31
2019-02-17T14:34:52.236Z,88065.61
2019-02-17T14:37:19.004Z,88065.67
2019-02-17T14:39:45.838Z,88068.02
2019-02-17T14:42:12.664Z,88069.12
2019-02-17T14:44:39.398Z,88067.51
2019-02-17T14:47:06.165Z,88073.95
2019-02-17T14:49:33.012Z,88072.10
2019-02-17T14:51:59.716Z,88072.33
2019-02-17T14:54:26.465Z,88075.50
2019-02-17T14:56:53.244Z,88069.38
2019-02-17T14:59:19.971Z,88073.95
2019-02-17T15:01:46.955Z,88072.44
2019-02-17T15:04:15.134Z,88079.50
2019-02-17T15:06:41.889Z,88073.67
2019-02-17T15:09:08.624Z,88077.25
2019-02-17T15:11:35.354Z,88074.30
2019-02-17T15:14:02.172Z,88069.91
2019-02-17T15:16:28.894Z,88071.21
2019-02-17T15:18:55.657Z,88068.16
2019-02-17T15:21:22.424Z,88067.58
2019-02-17T15:23:49.177Z,88067.67
2019-02-17T15:26:15.887Z,88068.97
2019-02-17T15:28:50.559Z,88068.39
2019-02-17T15:31:11.209Z,88066.00
2019-02-17T15:33:37.936Z,88070.41
2019-02-17T15:36:04.736Z,88068.41
2019-02-17T15:38:31.458Z,88071.02
2019-02-17T15:40:58.208Z,88073.04
2019-02-17T15:43:25.014Z,88071.50
2019-02-17T15:45:51.767Z,88071.45
2019-02-17T15:48:18.588Z,88069.59
2019-02-17T15:50:45.372Z,88068.38
2019-02-17T15:53:12.096Z,88070.58
2019-02-17T15:55:38.865Z,88072.48
2019-02-17T15:58:05.687Z,88071.39
2019-02-17T16:00:32.473Z,88068.06
2019-02-17T16:02:59.269Z,88065.64
2019-02-17T16:05:26.128Z,88065.28
2019-02-17T16:07:53.070Z,88075.35
2019-02-17T16:10:20.094Z,88075.53
2019-02-17T16:12:47.144Z,88074.48
2019-02-17T16:15:17.219Z,88072.16
2019-02-17T16:17:44.421Z,88079.06
2019-02-17T16:20:12.857Z,88075.72
2019-02-17T16:22:39.831Z,88073.61
2019-02-17T16:25:08.420Z,88079.63
2019-02-17T16:27:35.593Z,88073.45
2019-02-17T16:30:05.308Z,88075.77
2019-02-17T16:32:32.285Z,88082.55
2019-02-17T16:34:59.434Z,88082.34
2019-02-17T16:37:27.558Z,88086.72
2019-02-17T16:39:54.727Z,88084.59
2019-02-17T16:42:25.779Z,88086.29
2019-02-17T16:44:52.993Z,88091.41
2019-02-17T16:47:20.029Z,88087.91
2019-02-17T16:49:50.194Z,88087.00
2019-02-17T16:52:17.439Z,88093.88
2019-02-17T16:54:44.524Z,88097.88
2019-02-17T16:57:11.665Z,88101.30
2019-02-17T16:59:38.667Z,88096.18
2019-02-17T17:02:05.540Z,88101.85
2019-02-17T17:04:32.852Z,88104.59
2019-02-17T17:07:01.037Z,88104.00
2019-02-17T17:09:28.297Z,88106.22
2019-02-17T17:11:58.230Z,88108.37
2019-02-17T17:14:25.351Z,88116.45
2019-02-17T17:16:52.316Z,88116.52
2019-02-17T17:19:23.001Z,88122.11
2019-02-17T17:21:49.955Z,88120.11
2019-02-17T17:24:17.099Z,88120.48
2019-02-17T17:26:44.280Z,88125.30
2019-02-17T17:29:11.228Z,88126.08
2019-02-17T17:31:38.331Z,88125.22
2019-02-17T17:34:05.284Z,88124.66
2019-02-17T17:36:33.421Z,88130.30
2019-02-17T17:39:00.625Z,88127.02
2019-02-17T17:41:27.698Z,88131.58
2019-02-17T17:43:54.771Z,88134.18
2019-02-17T17:46:21.969Z,88137.09
2019-02-17T17:48:48.892Z,88135.09
2019-02-17T17:51:17.014Z,88147.92
2019-02-17T17:53:44.080Z,88141.09
2019-02-17T17:56:11.124Z,88141.69
2019-02-17T17:58:38.054Z,88147.94
2019-02-17T18:01:05.000Z,88145.77
2019-02-17T18:03:32.114Z,88149.14
2019-02-17T18:05:58.972Z,88146.61
2019-02-17T18:08:26.042Z,88145.55
2019-02-17T18:10:54.211Z,88148.37
2019-02-17T18:13:21.993Z,88148.75
2019-02-17T18:15:49.136Z,88154.06
2019-02-17T18:18:16.061Z,88153.02
2019-02-17T18:20:43.191Z,88153.72
2019-02-17T18:23:10.048Z,88149.58
2019-02-17T18:25:36.863Z,88151.87
2019-02-17T18:28:03.713Z,88160.96
2019-02-17T18:30:30.589Z,88156.66
2019-02-17T18:32:57.534Z,88161.45
2019-02-17T18:35:24.370Z,88155.64
2019-02-17T18:37:51.174Z,88160.70
2019-02-17T18:40:18.777Z,88156.71
2019-02-17T18:42:45.748Z,88158.13
2019-02-17T18:45:14.438Z,88155.06
2019-02-17T18:47:41.268Z,88158.09
2019-02-17T18:50:11.537Z,88155.97
2019-02-17T18:52:38.620Z,88162.30
2019-02-17T18:55:08.864Z,88162.41
2019-02-17T18:57:35.719Z,88164.07
2019-02-17T19:00:09.646Z,88165.59
2019-02-17T19:02:36.482Z,88162.83
2019-02-17T19:05:06.932Z,88166.11
2019-02-17T19:07:33.783Z,88165.81
2019-02-17T19:10:00.625Z,88160.20
2019-02-17T19:12:27.795Z,88169.13
2019-02-17T19:14:54.781Z,88167.58
2019-02-17T19:17:21.592Z,88169.06
2019-02-17T19:19:48.554Z,88163.46
2019-02-17T19:22:15.657Z,88168.54
2019-02-17T19:24:42.475Z,88170.94
2019-02-17T19:27:09.289Z,88167.92
2019-02-17T19:29:36.238Z,88167.45
2019-02-17T19:32:03.258Z,88168.02
2019-02-17T19:34:30.324Z,88168.08
2019-02-17T19:36:57.304Z,88167.03
2019-02-17T19:39:24.128Z,88167.73
2019-02-17T19:41:51.007Z,88164.72
2019-02-17T19:44:17.925Z,88166.29
2019-02-17T19:46:44.998Z,88166.12
2019-02-17T19:49:11.911Z,88171.30
2019-02-17T19:51:38.980Z,88166.12
2019-02-17T19:54:05.806Z,88165.34
2019-02-17T19:56:32.809Z,88173.84
2019-02-17T19:58:59.839Z,88173.80
2019-02-17T20:01:26.684Z,88171.13
2019-02-17T20:03:53.756Z,88170.38
2019-02-17T20:06:20.583Z,88172.25
2019-02-17T20:08:47.506Z,88174.32
2019-02-17T20:11:14.377Z,88180.13
2019-02-17T20:13:41.412Z,88176.98
2019-02-17T20:16:08.417Z,88176.69
2019-02-17T20:18:35.474Z,88175.02
2019-02-17T20:21:02.442Z,88171.25
2019-02-17T20:23:29.640Z,88173.94
2019-02-17T20:25:58.018Z,88173.03
2019-02-17T20:28:40.533Z,88176.81
2019-02-17T20:30:53.691Z,88170.20
2019-02-17T20:33:20.524Z,88177.50
2019-02-17T20:35:47.384Z,88174.22
2019-02-17T20:38:14.224Z,88183.62
2019-02-17T20:40:41.030Z,88183.20
2019-02-17T20:43:07.888Z,88175.77
2019-02-17T20:45:36.635Z,88178.22
2019-02-17T20:48:03.486Z,88174.94
2019-02-17T20:50:30.315Z,88173.25
2019-02-17T20:52:57.061Z,88176.14
2019-02-17T20:55:23.880Z,88178.95
2019-02-17T20:57:50.640Z,88172.00
2019-02-17T21:00:19.060Z,88178.95
2019-02-17T21:02:47.399Z,88171.30
2019-02-17T21:05:33.851Z,88172.34
2019-02-17T21:08:00.642Z,88175.22
2019-02-17T21:10:27.407Z,88174.45
2019-02-17T21:12:54.151Z,88173.93
2019-02-17T21:15:20.973Z,88179.92
2019-02-17T21:17:47.738Z,88172.16
2019-02-17T21:20:14.449Z,88172.47
2019-02-17T21:22:41.231Z,88179.05
2019-02-17T21:25:09.749Z,88177.58
2019-02-17T21:27:36.553Z,88176.28
2019-02-17T21:30:15.312Z,88173.66
2019-02-17T21:32:42.111Z,88181.31
2019-02-17T21:35:14.379Z,88180.09
2019-02-17T21:37:41.114Z,88178.47
2019-02-17T21:40:10.125Z,88171.25
2019-02-17T21:42:36.874Z,88171.08
2019-02-17T21:45:10.597Z,88177.80
2019-02-17T21:47:39.058Z,88175.29
2019-02-17T21:50:25.715Z,88173.08
2019-02-17T21:52:52.532Z,88171.67
2019-02-17T21:55:19.265Z,88172.26
2019-02-17T21:57:45.976Z,88168.42
2019-02-17T22:00:19.475Z,88169.55
2019-02-17T22:02:46.181Z,88169.81
2019-02-17T22:05:12.934Z,88170.44
2019-02-17T22:07:39.877Z,88163.00
2019-02-17T22:10:11.092Z,88159.61
2019-02-17T22:12:37.917Z,88160.39
2019-02-17T22:15:11.595Z,88155.25
2019-02-17T22:17:38.339Z,88153.52
2019-02-17T22:20:08.136Z,88156.09
2019-02-17T22:22:34.880Z,88156.61
2019-02-17T22:25:01.653Z,88155.65
2019-02-17T22:27:28.364Z,88155.65
2019-02-17T22:29:55.109Z,88151.58
2019-02-17T22:32:21.944Z,88150.09
2019-02-17T22:34:48.670Z,88147.26
2019-02-17T22:37:15.414Z,88154.81
2019-02-17T22:39:42.200Z,88145.29
2019-02-17T22:42:28.672Z,88148.39
2019-02-17T22:44:55.471Z,88143.22
2019-02-17T22:47:22.235Z,88148.78
2019-02-17T22:49:48.984Z,88146.94
2019-02-17T22:52:15.788Z,88153.46
2019-02-17T22:54:42.511Z,88146.58
2019-02-17T22:57:09.263Z,88156.17
2019-02-17T22:59:36.075Z,88145.39
2019-02-17T23:02:02.794Z,88150.55
2019-02-17T23:04:29.526Z,88150.84
2019-02-17T23:06:56.304Z,88149.00
2019-02-17T23:09:23.021Z,88150.33
2019-02-17T23:11:49.838Z,88151.36
2019-02-17T23:14:16.547Z,88149.81
2019-02-17T23:16:43.291Z,88149.23
2019-02-17T23:19:10.099Z,88148.45
2019-02-17T23:21:36.847Z,88156.30
2019-02-17T23:24:03.594Z,88152.94
2019-02-17T23:26:30.376Z,88158.39
2019-02-17T23:28:57.085Z,88151.13
2019-02-17T23:31:23.826Z,88150.67
2019-02-17T23:33:50.629Z,88156.59
2019-02-17T23:36:17.349Z,88151.52
2019-02-17T23:38:44.083Z,88151.80
2019-02-17T23:41:10.890Z,88150.05
2019-02-17T23:43:37.638Z,88145.43
2019-02-17T23:46:04.439Z,88145.23
2019-02-17T23:48:31.190Z,88147.55
2019-02-17T23:50:57.942Z,88148.84
2019-02-17T23:53:24.705Z,88144.75
2019-02-17T23:55:51.432Z,88146.55
2019-02-17T23:58:18.207Z,88137.83
